sensor_id;sensor_type;location;lat;lon;timestamp;P1;durP1;ratioP1;P2;durP2;ratioP2
19778;SDS011;10049;59.306;18.090;2023-09-19T00:02:01;4.25;;;2.03;;
19778;SDS011;10049;59.306;18.090;2023-09-19T00:04:34;3.72;;;2.33;;
19778;SDS011;10049;59.306;18.090;2023-09-19T00:07:05;3.35;;;1.95;;
19778;SDS011;10049;59.306;18.090;2023-09-19T00:09:35;4.82;;;2.17;;
19778;SDS011;10049;59.306;18.090;2023-09-19T00:12:06;3.70;;;2.20;;
19778;SDS011;10049;59.306;18.090;2023-09-19T00:14:36;3.95;;;2.30;;
19778;SDS011;10049;59.306;18.090;2023-09-19T00:17:04;7.50;;;2.22;;
19778;SDS011;10049;59.306;18.090;2023-09-19T00:19:33;4.88;;;2.20;;
19778;SDS011;10049;59.306;18.090;2023-09-19T00:22:08;3.15;;;2.22;;
19778;SDS011;10049;59.306;18.090;2023-09-19T00:24:38;9.25;;;2.70;;
19778;SDS011;10049;59.306;18.090;2023-09-19T00:27:10;4.70;;;2.63;;
19778;SDS011;10049;59.306;18.090;2023-09-19T00:29:40;5.57;;;2.70;;
19778;SDS011;10049;59.306;18.090;2023-09-19T00:32:07;4.47;;;2.42;;
19778;SDS011;10049;59.306;18.090;2023-09-19T00:34:35;4.57;;;2.72;;
19778;SDS011;10049;59.306;18.090;2023-09-19T00:37:04;6.70;;;2.60;;
19778;SDS011;10049;59.306;18.090;2023-09-19T00:39:33;3.85;;;2.80;;
19778;SDS011;10049;59.306;18.090;2023-09-19T00:42:02;2.97;;;2.50;;
19778;SDS011;10049;59.306;18.090;2023-09-19T00:44:32;4.22;;;2.83;;
19778;SDS011;10049;59.306;18.090;2023-09-19T00:47:02;5.38;;;3.10;;
19778;SDS011;10049;59.306;18.090;2023-09-19T00:49:30;5.22;;;2.80;;
19778;SDS011;10049;59.306;18.090;2023-09-19T00:51:58;6.18;;;2.75;;
19778;SDS011;10049;59.306;18.090;2023-09-19T00:54:25;4.43;;;2.40;;
19778;SDS011;10049;59.306;18.090;2023-09-19T00:56:53;4.13;;;2.60;;
19778;SDS011;10049;59.306;18.090;2023-09-19T00:59:21;9.10;;;3.15;;
19778;SDS011;10049;59.306;18.090;2023-09-19T01:01:51;3.22;;;2.90;;
19778;SDS011;10049;59.306;18.090;2023-09-19T01:04:22;3.67;;;2.70;;
19778;SDS011;10049;59.306;18.090;2023-09-19T01:06:50;4.93;;;2.78;;
19778;SDS011;10049;59.306;18.090;2023-09-19T01:09:18;3.67;;;2.33;;
19778;SDS011;10049;59.306;18.090;2023-09-19T01:11:47;4.15;;;2.92;;
19778;SDS011;10049;59.306;18.090;2023-09-19T01:14:21;5.15;;;3.10;;
19778;SDS011;10049;59.306;18.090;2023-09-19T01:16:57;5.63;;;2.70;;
19778;SDS011;10049;59.306;18.090;2023-09-19T01:19:42;5.28;;;2.80;;
19778;SDS011;10049;59.306;18.090;2023-09-19T01:22:29;4.60;;;2.53;;
19778;SDS011;10049;59.306;18.090;2023-09-19T01:25:07;4.68;;;2.60;;
19778;SDS011;10049;59.306;18.090;2023-09-19T01:30:45;4.47;;;2.95;;
19778;SDS011;10049;59.306;18.090;2023-09-19T01:33:16;7.70;;;3.30;;
19778;SDS011;10049;59.306;18.090;2023-09-19T01:35:44;6.60;;;3.00;;
19778;SDS011;10049;59.306;18.090;2023-09-19T01:38:19;8.80;;;3.30;;
19778;SDS011;10049;59.306;18.090;2023-09-19T01:40:52;5.47;;;2.90;;
19778;SDS011;10049;59.306;18.090;2023-09-19T01:43:23;5.30;;;2.85;;
19778;SDS011;10049;59.306;18.090;2023-09-19T01:45:56;6.03;;;3.13;;
19778;SDS011;10049;59.306;18.090;2023-09-19T01:48:32;5.30;;;2.95;;
19778;SDS011;10049;59.306;18.090;2023-09-19T01:51:05;5.43;;;3.40;;
19778;SDS011;10049;59.306;18.090;2023-09-19T01:53:35;5.80;;;3.20;;
19778;SDS011;10049;59.306;18.090;2023-09-19T01:56:04;5.70;;;3.03;;
19778;SDS011;10049;59.306;18.090;2023-09-19T01:58:33;5.38;;;3.00;;
19778;SDS011;10049;59.306;18.090;2023-09-19T02:01:03;4.35;;;3.20;;
19778;SDS011;10049;59.306;18.090;2023-09-19T02:03:33;5.95;;;3.28;;
19778;SDS011;10049;59.306;18.090;2023-09-19T02:06:02;9.27;;;3.00;;
19778;SDS011;10049;59.306;18.090;2023-09-19T02:08:31;8.15;;;3.50;;
19778;SDS011;10049;59.306;18.090;2023-09-19T02:10:59;6.40;;;3.60;;
19778;SDS011;10049;59.306;18.090;2023-09-19T02:13:28;5.22;;;3.30;;
19778;SDS011;10049;59.306;18.090;2023-09-19T02:16:12;5.60;;;3.42;;
19778;SDS011;10049;59.306;18.090;2023-09-19T02:18:40;5.82;;;3.55;;
19778;SDS011;10049;59.306;18.090;2023-09-19T02:21:08;4.85;;;3.45;;
19778;SDS011;10049;59.306;18.090;2023-09-19T02:23:37;7.20;;;3.30;;
19778;SDS011;10049;59.306;18.090;2023-09-19T02:26:06;6.45;;;3.60;;
19778;SDS011;10049;59.306;18.090;2023-09-19T02:28:35;5.72;;;3.55;;
19778;SDS011;10049;59.306;18.090;2023-09-19T02:31:02;6.90;;;3.53;;
19778;SDS011;10049;59.306;18.090;2023-09-19T02:33:33;7.72;;;3.95;;
19778;SDS011;10049;59.306;18.090;2023-09-19T02:36:02;8.00;;;3.60;;
19778;SDS011;10049;59.306;18.090;2023-09-19T02:38:33;6.78;;;3.78;;
19778;SDS011;10049;59.306;18.090;2023-09-19T02:41:02;6.38;;;3.75;;
19778;SDS011;10049;59.306;18.090;2023-09-19T02:43:30;5.20;;;3.55;;
19778;SDS011;10049;59.306;18.090;2023-09-19T02:45:58;10.55;;;4.28;;
19778;SDS011;10049;59.306;18.090;2023-09-19T02:48:28;6.78;;;4.10;;
19778;SDS011;10049;59.306;18.090;2023-09-19T02:50:59;9.30;;;3.97;;
19778;SDS011;10049;59.306;18.090;2023-09-19T02:53:26;7.40;;;4.05;;
19778;SDS011;10049;59.306;18.090;2023-09-19T02:55:56;7.45;;;4.18;;
19778;SDS011;10049;59.306;18.090;2023-09-19T02:58:24;9.15;;;4.43;;
19778;SDS011;10049;59.306;18.090;2023-09-19T03:00:53;8.82;;;4.35;;
19778;SDS011;10049;59.306;18.090;2023-09-19T03:03:21;6.25;;;3.83;;
19778;SDS011;10049;59.306;18.090;2023-09-19T03:05:49;9.00;;;4.00;;
19778;SDS011;10049;59.306;18.090;2023-09-19T03:08:20;10.63;;;4.75;;
19778;SDS011;10049;59.306;18.090;2023-09-19T03:10:48;6.68;;;4.50;;
19778;SDS011;10049;59.306;18.090;2023-09-19T03:13:16;12.70;;;5.20;;
19778;SDS011;10049;59.306;18.090;2023-09-19T03:15:43;9.07;;;4.75;;
19778;SDS011;10049;59.306;18.090;2023-09-19T03:18:12;7.35;;;4.45;;
19778;SDS011;10049;59.306;18.090;2023-09-19T03:20:39;8.07;;;5.20;;
19778;SDS011;10049;59.306;18.090;2023-09-19T03:23:07;7.47;;;4.60;;
19778;SDS011;10049;59.306;18.090;2023-09-19T03:25:37;7.03;;;4.70;;
19778;SDS011;10049;59.306;18.090;2023-09-19T03:28:04;7.15;;;4.25;;
19778;SDS011;10049;59.306;18.090;2023-09-19T03:30:33;8.50;;;4.97;;
19778;SDS011;10049;59.306;18.090;2023-09-19T03:33:01;9.88;;;5.40;;
19778;SDS011;10049;59.306;18.090;2023-09-19T03:35:31;7.63;;;4.88;;
19778;SDS011;10049;59.306;18.090;2023-09-19T03:37:59;6.72;;;4.97;;
19778;SDS011;10049;59.306;18.090;2023-09-19T03:40:28;9.88;;;5.60;;
19778;SDS011;10049;59.306;18.090;2023-09-19T03:42:58;11.95;;;5.55;;
19778;SDS011;10049;59.306;18.090;2023-09-19T03:45:27;12.82;;;6.00;;
19778;SDS011;10049;59.306;18.090;2023-09-19T03:47:57;11.25;;;5.35;;
19778;SDS011;10049;59.306;18.090;2023-09-19T03:50:25;8.27;;;5.57;;
19778;SDS011;10049;59.306;18.090;2023-09-19T03:52:57;11.05;;;5.93;;
19778;SDS011;10049;59.306;18.090;2023-09-19T03:55:25;12.50;;;6.28;;
19778;SDS011;10049;59.306;18.090;2023-09-19T03:57:57;10.35;;;6.10;;
19778;SDS011;10049;59.306;18.090;2023-09-19T04:00:25;14.70;;;6.63;;
19778;SDS011;10049;59.306;18.090;2023-09-19T04:02:53;9.95;;;6.15;;
19778;SDS011;10049;59.306;18.090;2023-09-19T04:05:22;12.63;;;6.97;;
19778;SDS011;10049;59.306;18.090;2023-09-19T04:07:50;10.93;;;6.10;;
19778;SDS011;10049;59.306;18.090;2023-09-19T04:10:18;11.75;;;6.43;;
19778;SDS011;10049;59.306;18.090;2023-09-19T04:12:52;12.10;;;6.68;;
19778;SDS011;10049;59.306;18.090;2023-09-19T04:15:21;12.57;;;6.65;;
19778;SDS011;10049;59.306;18.090;2023-09-19T04:17:49;10.25;;;5.95;;
19778;SDS011;10049;59.306;18.090;2023-09-19T04:20:17;11.13;;;6.82;;
19778;SDS011;10049;59.306;18.090;2023-09-19T04:22:47;10.82;;;7.05;;
19778;SDS011;10049;59.306;18.090;2023-09-19T04:25:22;14.38;;;7.20;;
19778;SDS011;10049;59.306;18.090;2023-09-19T04:27:51;14.18;;;6.65;;
19778;SDS011;10049;59.306;18.090;2023-09-19T04:30:24;12.27;;;6.95;;
19778;SDS011;10049;59.306;18.090;2023-09-19T04:32:52;12.13;;;7.03;;
19778;SDS011;10049;59.306;18.090;2023-09-19T04:35:20;11.57;;;7.53;;
19778;SDS011;10049;59.306;18.090;2023-09-19T04:37:48;11.07;;;7.30;;
19778;SDS011;10049;59.306;18.090;2023-09-19T04:40:15;11.82;;;7.00;;
19778;SDS011;10049;59.306;18.090;2023-09-19T04:42:44;10.40;;;6.43;;
19778;SDS011;10049;59.306;18.090;2023-09-19T04:45:14;12.70;;;7.05;;
19778;SDS011;10049;59.306;18.090;2023-09-19T04:47:45;15.43;;;7.05;;
19778;SDS011;10049;59.306;18.090;2023-09-19T04:50:13;9.88;;;6.40;;
19778;SDS011;10049;59.306;18.090;2023-09-19T04:52:42;12.45;;;7.00;;
19778;SDS011;10049;59.306;18.090;2023-09-19T04:55:10;13.65;;;7.60;;
19778;SDS011;10049;59.306;18.090;2023-09-19T04:57:44;11.38;;;7.32;;
19778;SDS011;10049;59.306;18.090;2023-09-19T05:00:13;14.38;;;7.20;;
19778;SDS011;10049;59.306;18.090;2023-09-19T05:02:51;14.27;;;7.18;;
19778;SDS011;10049;59.306;18.090;2023-09-19T05:05:21;12.60;;;7.43;;
19778;SDS011;10049;59.306;18.090;2023-09-19T05:07:51;11.65;;;6.72;;
19778;SDS011;10049;59.306;18.090;2023-09-19T05:10:21;17.00;;;6.93;;
19778;SDS011;10049;59.306;18.090;2023-09-19T05:12:52;12.20;;;7.40;;
19778;SDS011;10049;59.306;18.090;2023-09-19T05:15:35;11.25;;;7.00;;
19778;SDS011;10049;59.306;18.090;2023-09-19T05:18:21;14.35;;;7.30;;
19778;SDS011;10049;59.306;18.090;2023-09-19T05:20:50;12.32;;;6.82;;
19778;SDS011;10049;59.306;18.090;2023-09-19T05:23:20;9.88;;;6.93;;
19778;SDS011;10049;59.306;18.090;2023-09-19T05:25:51;14.50;;;7.10;;
19778;SDS011;10049;59.306;18.090;2023-09-19T05:28:19;15.23;;;7.55;;
19778;SDS011;10049;59.306;18.090;2023-09-19T05:30:47;10.18;;;6.63;;
19778;SDS011;10049;59.306;18.090;2023-09-19T05:33:15;13.52;;;7.50;;
19778;SDS011;10049;59.306;18.090;2023-09-19T05:35:47;12.90;;;7.43;;
19778;SDS011;10049;59.306;18.090;2023-09-19T05:38:15;11.80;;;6.90;;
19778;SDS011;10049;59.306;18.090;2023-09-19T05:40:44;10.20;;;6.40;;
19778;SDS011;10049;59.306;18.090;2023-09-19T05:43:13;11.40;;;7.28;;
19778;SDS011;10049;59.306;18.090;2023-09-19T05:45:41;11.70;;;7.07;;
19778;SDS011;10049;59.306;18.090;2023-09-19T05:48:10;12.25;;;7.78;;
19778;SDS011;10049;59.306;18.090;2023-09-19T05:50:38;18.25;;;7.60;;
19778;SDS011;10049;59.306;18.090;2023-09-19T05:53:10;10.43;;;6.88;;
19778;SDS011;10049;59.306;18.090;2023-09-19T05:55:39;14.02;;;6.68;;
19778;SDS011;10049;59.306;18.090;2023-09-19T05:58:08;11.45;;;6.28;;
19778;SDS011;10049;59.306;18.090;2023-09-19T06:00:39;12.23;;;6.63;;
19778;SDS011;10049;59.306;18.090;2023-09-19T06:03:09;13.48;;;6.97;;
19778;SDS011;10049;59.306;18.090;2023-09-19T06:05:39;10.27;;;6.78;;
19778;SDS011;10049;59.306;18.090;2023-09-19T06:08:06;10.73;;;6.65;;
19778;SDS011;10049;59.306;18.090;2023-09-19T06:10:38;15.05;;;6.90;;
19778;SDS011;10049;59.306;18.090;2023-09-19T06:13:08;9.98;;;6.60;;
19778;SDS011;10049;59.306;18.090;2023-09-19T06:15:36;9.43;;;6.47;;
19778;SDS011;10049;59.306;18.090;2023-09-19T06:18:09;10.15;;;6.75;;
19778;SDS011;10049;59.306;18.090;2023-09-19T06:20:40;10.43;;;6.72;;
19778;SDS011;10049;59.306;18.090;2023-09-19T06:23:10;16.17;;;6.93;;
19778;SDS011;10049;59.306;18.090;2023-09-19T06:25:39;11.02;;;7.05;;
19778;SDS011;10049;59.306;18.090;2023-09-19T06:28:09;14.80;;;6.85;;
19778;SDS011;10049;59.306;18.090;2023-09-19T06:30:48;11.63;;;6.50;;
19778;SDS011;10049;59.306;18.090;2023-09-19T06:33:21;11.23;;;6.43;;
19778;SDS011;10049;59.306;18.090;2023-09-19T06:35:48;12.48;;;6.35;;
19778;SDS011;10049;59.306;18.090;2023-09-19T06:38:18;11.45;;;6.45;;
19778;SDS011;10049;59.306;18.090;2023-09-19T06:40:48;8.35;;;6.03;;
19778;SDS011;10049;59.306;18.090;2023-09-19T06:43:16;9.82;;;6.07;;
19778;SDS011;10049;59.306;18.090;2023-09-19T06:45:45;10.35;;;6.35;;
19778;SDS011;10049;59.306;18.090;2023-09-19T06:48:13;8.57;;;5.68;;
19778;SDS011;10049;59.306;18.090;2023-09-19T06:50:41;10.18;;;5.93;;
19778;SDS011;10049;59.306;18.090;2023-09-19T06:53:09;9.48;;;6.38;;
19778;SDS011;10049;59.306;18.090;2023-09-19T06:55:40;7.72;;;6.03;;
19778;SDS011;10049;59.306;18.090;2023-09-19T06:58:15;9.52;;;6.60;;
19778;SDS011;10049;59.306;18.090;2023-09-19T07:00:43;18.05;;;6.82;;
19778;SDS011;10049;59.306;18.090;2023-09-19T07:03:15;12.90;;;6.78;;
19778;SDS011;10049;59.306;18.090;2023-09-19T07:05:46;10.63;;;6.60;;
19778;SDS011;10049;59.306;18.090;2023-09-19T07:08:14;10.85;;;6.78;;
19778;SDS011;10049;59.306;18.090;2023-09-19T07:10:44;9.73;;;6.13;;
19778;SDS011;10049;59.306;18.090;2023-09-19T07:13:18;10.00;;;6.10;;
19778;SDS011;10049;59.306;18.090;2023-09-19T07:15:47;10.93;;;5.60;;
19778;SDS011;10049;59.306;18.090;2023-09-19T07:18:16;6.88;;;5.28;;
19778;SDS011;10049;59.306;18.090;2023-09-19T07:20:45;6.30;;;4.63;;
19778;SDS011;10049;59.306;18.090;2023-09-19T07:23:15;8.20;;;5.25;;
19778;SDS011;10049;59.306;18.090;2023-09-19T07:25:43;8.20;;;4.93;;
19778;SDS011;10049;59.306;18.090;2023-09-19T07:28:12;9.45;;;5.28;;
19778;SDS011;10049;59.306;18.090;2023-09-19T07:30:43;7.78;;;5.70;;
19778;SDS011;10049;59.306;18.090;2023-09-19T07:33:15;11.55;;;5.65;;
19778;SDS011;10049;59.306;18.090;2023-09-19T07:35:44;9.95;;;6.13;;
19778;SDS011;10049;59.306;18.090;2023-09-19T07:38:14;10.13;;;6.75;;
19778;SDS011;10049;59.306;18.090;2023-09-19T07:40:44;8.65;;;6.15;;
19778;SDS011;10049;59.306;18.090;2023-09-19T07:43:12;8.63;;;6.40;;
19778;SDS011;10049;59.306;18.090;2023-09-19T07:45:41;10.00;;;6.88;;
19778;SDS011;10049;59.306;18.090;2023-09-19T07:48:09;10.00;;;6.78;;
19778;SDS011;10049;59.306;18.090;2023-09-19T07:50:39;12.15;;;7.25;;
19778;SDS011;10049;59.306;18.090;2023-09-19T07:53:10;12.65;;;7.72;;
19778;SDS011;10049;59.306;18.090;2023-09-19T07:55:38;13.98;;;7.28;;
19778;SDS011;10049;59.306;18.090;2023-09-19T07:58:13;10.43;;;6.85;;
19778;SDS011;10049;59.306;18.090;2023-09-19T08:00:43;10.98;;;6.93;;
19778;SDS011;10049;59.306;18.090;2023-09-19T08:03:11;11.48;;;7.07;;
19778;SDS011;10049;59.306;18.090;2023-09-19T08:05:40;12.27;;;7.55;;
19778;SDS011;10049;59.306;18.090;2023-09-19T08:08:08;13.05;;;6.60;;
19778;SDS011;10049;59.306;18.090;2023-09-19T08:10:40;11.57;;;6.40;;
19778;SDS011;10049;59.306;18.090;2023-09-19T08:13:14;8.82;;;6.13;;
19778;SDS011;10049;59.306;18.090;2023-09-19T08:15:45;10.93;;;6.30;;
19778;SDS011;10049;59.306;18.090;2023-09-19T08:18:16;10.18;;;6.55;;
19778;SDS011;10049;59.306;18.090;2023-09-19T08:20:48;9.60;;;6.05;;
19778;SDS011;10049;59.306;18.090;2023-09-19T08:23:18;13.00;;;5.55;;
19778;SDS011;10049;59.306;18.090;2023-09-19T08:25:46;9.52;;;5.60;;
19778;SDS011;10049;59.306;18.090;2023-09-19T08:28:14;9.05;;;5.63;;
19778;SDS011;10049;59.306;18.090;2023-09-19T08:30:46;8.07;;;5.20;;
19778;SDS011;10049;59.306;18.090;2023-09-19T08:33:14;7.47;;;5.05;;
19778;SDS011;10049;59.306;18.090;2023-09-19T08:35:42;11.13;;;5.70;;
19778;SDS011;10049;59.306;18.090;2023-09-19T08:38:11;13.45;;;5.65;;
19778;SDS011;10049;59.306;18.090;2023-09-19T08:40:42;7.68;;;5.18;;
19778;SDS011;10049;59.306;18.090;2023-09-19T08:43:10;8.90;;;4.80;;
19778;SDS011;10049;59.306;18.090;2023-09-19T08:45:37;7.93;;;5.03;;
19778;SDS011;10049;59.306;18.090;2023-09-19T08:48:20;7.80;;;5.10;;
19778;SDS011;10049;59.306;18.090;2023-09-19T08:50:51;7.40;;;4.93;;
19778;SDS011;10049;59.306;18.090;2023-09-19T08:53:21;8.05;;;5.07;;
19778;SDS011;10049;59.306;18.090;2023-09-19T08:55:52;12.45;;;5.28;;
19778;SDS011;10049;59.306;18.090;2023-09-19T08:58:21;8.07;;;4.63;;
19778;SDS011;10049;59.306;18.090;2023-09-19T09:00:54;6.90;;;4.57;;
19778;SDS011;10049;59.306;18.090;2023-09-19T09:03:28;6.35;;;4.18;;
19778;SDS011;10049;59.306;18.090;2023-09-19T09:05:58;6.90;;;3.90;;
19778;SDS011;10049;59.306;18.090;2023-09-19T09:08:27;7.07;;;4.10;;
19778;SDS011;10049;59.306;18.090;2023-09-19T09:10:55;7.68;;;4.10;;
19778;SDS011;10049;59.306;18.090;2023-09-19T09:13:24;8.85;;;3.70;;
19778;SDS011;10049;59.306;18.090;2023-09-19T09:15:53;6.93;;;3.92;;
19778;SDS011;10049;59.306;18.090;2023-09-19T09:18:21;5.35;;;3.20;;
19778;SDS011;10049;59.306;18.090;2023-09-19T09:20:50;6.88;;;2.92;;
19778;SDS011;10049;59.306;18.090;2023-09-19T09:23:21;4.07;;;2.75;;
19778;SDS011;10049;59.306;18.090;2023-09-19T09:25:50;6.45;;;2.90;;
19778;SDS011;10049;59.306;18.090;2023-09-19T09:28:22;6.05;;;3.00;;
19778;SDS011;10049;59.306;18.090;2023-09-19T09:30:50;4.95;;;2.40;;
19778;SDS011;10049;59.306;18.090;2023-09-19T09:33:18;3.30;;;2.45;;
19778;SDS011;10049;59.306;18.090;2023-09-19T09:35:47;4.50;;;2.78;;
19778;SDS011;10049;59.306;18.090;2023-09-19T09:38:19;3.45;;;2.22;;
19778;SDS011;10049;59.306;18.090;2023-09-19T09:40:48;3.92;;;2.22;;
19778;SDS011;10049;59.306;18.090;2023-09-19T09:43:25;4.68;;;2.22;;
19778;SDS011;10049;59.306;18.090;2023-09-19T09:48:58;4.10;;;2.40;;
19778;SDS011;10049;59.306;18.090;2023-09-19T09:51:45;3.33;;;2.17;;
19778;SDS011;10049;59.306;18.090;2023-09-19T09:54:26;2.88;;;2.10;;
19778;SDS011;10049;59.306;18.090;2023-09-19T09:57:01;3.08;;;2.00;;
19778;SDS011;10049;59.306;18.090;2023-09-19T09:59:45;4.30;;;2.25;;
19778;SDS011;10049;59.306;18.090;2023-09-19T10:02:15;4.85;;;2.30;;
19778;SDS011;10049;59.306;18.090;2023-09-19T10:04:49;6.85;;;2.33;;
19778;SDS011;10049;59.306;18.090;2023-09-19T10:07:35;3.03;;;1.98;;
19778;SDS011;10049;59.306;18.090;2023-09-19T10:10:09;4.38;;;2.17;;
19778;SDS011;10049;59.306;18.090;2023-09-19T10:12:44;2.63;;;2.10;;
19778;SDS011;10049;59.306;18.090;2023-09-19T10:15:16;6.50;;;2.22;;
19778;SDS011;10049;59.306;18.090;2023-09-19T10:17:46;2.22;;;2.03;;
19778;SDS011;10049;59.306;18.090;2023-09-19T10:20:14;4.90;;;2.13;;
19778;SDS011;10049;59.306;18.090;2023-09-19T10:22:59;4.35;;;2.13;;
19778;SDS011;10049;59.306;18.090;2023-09-19T10:25:29;3.05;;;1.70;;
19778;SDS011;10049;59.306;18.090;2023-09-19T10:27:57;4.03;;;1.92;;
19778;SDS011;10049;59.306;18.090;2023-09-19T10:30:36;3.15;;;2.00;;
19778;SDS011;10049;59.306;18.090;2023-09-19T10:33:10;3.50;;;1.90;;
19778;SDS011;10049;59.306;18.090;2023-09-19T10:35:39;10.88;;;2.28;;
19778;SDS011;10049;59.306;18.090;2023-09-19T10:38:07;5.75;;;2.10;;
19778;SDS011;10049;59.306;18.090;2023-09-19T10:40:39;3.38;;;1.98;;
19778;SDS011;10049;59.306;18.090;2023-09-19T10:43:11;3.92;;;1.70;;
19778;SDS011;10049;59.306;18.090;2023-09-19T10:45:42;2.65;;;1.70;;
19778;SDS011;10049;59.306;18.090;2023-09-19T10:48:12;3.80;;;1.70;;
19778;SDS011;10049;59.306;18.090;2023-09-19T10:50:43;3.92;;;2.00;;
19778;SDS011;10049;59.306;18.090;2023-09-19T10:53:12;3.50;;;1.50;;
19778;SDS011;10049;59.306;18.090;2023-09-19T10:55:49;4.53;;;1.50;;
19778;SDS011;10049;59.306;18.090;2023-09-19T10:58:26;3.65;;;1.70;;
19778;SDS011;10049;59.306;18.090;2023-09-19T11:00:55;1.80;;;1.60;;
19778;SDS011;10049;59.306;18.090;2023-09-19T11:03:26;3.38;;;1.42;;
19778;SDS011;10049;59.306;18.090;2023-09-19T11:06:01;3.58;;;1.30;;
19778;SDS011;10049;59.306;18.090;2023-09-19T11:14:16;3.83;;;1.30;;
19778;SDS011;10049;59.306;18.090;2023-09-19T11:25:42;1.38;;;1.15;;
19778;SDS011;10049;59.306;18.090;2023-09-19T11:28:28;2.15;;;1.10;;
19778;SDS011;10049;59.306;18.090;2023-09-19T11:30:58;3.72;;;1.30;;
19778;SDS011;10049;59.306;18.090;2023-09-19T11:33:27;3.03;;;1.30;;
19778;SDS011;10049;59.306;18.090;2023-09-19T11:36:02;3.70;;;1.20;;
19778;SDS011;10049;59.306;18.090;2023-09-19T11:46:55;2.33;;;0.98;;
19778;SDS011;10049;59.306;18.090;2023-09-19T11:49:25;2.97;;;1.10;;
19778;SDS011;10049;59.306;18.090;2023-09-19T11:51:55;3.20;;;0.82;;
19778;SDS011;10049;59.306;18.090;2023-09-19T11:54:24;1.13;;;0.70;;
19778;SDS011;10049;59.306;18.090;2023-09-19T11:56:54;1.23;;;0.52;;
19778;SDS011;10049;59.306;18.090;2023-09-19T11:59:25;1.00;;;0.65;;
19778;SDS011;10049;59.306;18.090;2023-09-19T12:01:55;2.15;;;0.50;;
19778;SDS011;10049;59.306;18.090;2023-09-19T12:04:33;1.48;;;0.70;;
19778;SDS011;10049;59.306;18.090;2023-09-19T12:07:03;1.52;;;0.65;;
19778;SDS011;10049;59.306;18.090;2023-09-19T12:09:36;1.08;;;0.70;;
19778;SDS011;10049;59.306;18.090;2023-09-19T12:12:09;1.48;;;0.50;;
19778;SDS011;10049;59.306;18.090;2023-09-19T12:14:40;0.98;;;0.50;;
19778;SDS011;10049;59.306;18.090;2023-09-19T12:17:10;7.63;;;0.80;;
19778;SDS011;10049;59.306;18.090;2023-09-19T12:19:38;2.38;;;0.52;;
19778;SDS011;10049;59.306;18.090;2023-09-19T12:22:08;2.38;;;0.80;;
19778;SDS011;10049;59.306;18.090;2023-09-19T12:24:39;1.63;;;0.65;;
19778;SDS011;10049;59.306;18.090;2023-09-19T12:27:09;6.15;;;0.65;;
19778;SDS011;10049;59.306;18.090;2023-09-19T12:29:42;1.02;;;0.50;;
19778;SDS011;10049;59.306;18.090;2023-09-19T12:32:12;3.90;;;0.55;;
19778;SDS011;10049;59.306;18.090;2023-09-19T12:34:41;2.10;;;0.60;;
19778;SDS011;10049;59.306;18.090;2023-09-19T12:37:12;0.77;;;0.50;;
19778;SDS011;10049;59.306;18.090;2023-09-19T12:39:48;1.70;;;0.60;;
19778;SDS011;10049;59.306;18.090;2023-09-19T12:42:20;0.75;;;0.50;;
19778;SDS011;10049;59.306;18.090;2023-09-19T12:44:48;0.80;;;0.50;;
19778;SDS011;10049;59.306;18.090;2023-09-19T12:47:22;3.28;;;0.70;;
19778;SDS011;10049;59.306;18.090;2023-09-19T12:52:43;4.85;;;0.70;;
19778;SDS011;10049;59.306;18.090;2023-09-19T12:57:43;4.15;;;0.73;;
19778;SDS011;10049;59.306;18.090;2023-09-19T13:00:13;4.35;;;0.70;;
19778;SDS011;10049;59.306;18.090;2023-09-19T13:05:47;1.63;;;0.70;;
19778;SDS011;10049;59.306;18.090;2023-09-19T13:08:18;0.85;;;0.60;;
19778;SDS011;10049;59.306;18.090;2023-09-19T13:10:59;5.22;;;0.93;;
19778;SDS011;10049;59.306;18.090;2023-09-19T13:13:29;1.45;;;0.70;;
19778;SDS011;10049;59.306;18.090;2023-09-19T13:15:57;1.25;;;0.60;;
19778;SDS011;10049;59.306;18.090;2023-09-19T13:18:26;2.75;;;0.82;;
19778;SDS011;10049;59.306;18.090;2023-09-19T13:21:28;0.90;;;0.60;;
19778;SDS011;10049;59.306;18.090;2023-09-19T13:24:17;0.90;;;0.70;;
19778;SDS011;10049;59.306;18.090;2023-09-19T13:26:46;1.30;;;0.70;;
19778;SDS011;10049;59.306;18.090;2023-09-19T13:29:13;0.75;;;0.60;;
19778;SDS011;10049;59.306;18.090;2023-09-19T13:31:45;1.15;;;0.65;;
19778;SDS011;10049;59.306;18.090;2023-09-19T13:34:12;0.75;;;0.68;;
19778;SDS011;10049;59.306;18.090;2023-09-19T13:36:43;2.78;;;0.60;;
19778;SDS011;10049;59.306;18.090;2023-09-19T13:39:12;0.60;;;0.60;;
19778;SDS011;10049;59.306;18.090;2023-09-19T13:41:41;0.90;;;0.60;;
19778;SDS011;10049;59.306;18.090;2023-09-19T13:44:09;3.85;;;1.10;;
19778;SDS011;10049;59.306;18.090;2023-09-19T13:46:37;2.13;;;0.82;;
19778;SDS011;10049;59.306;18.090;2023-09-19T13:49:10;1.30;;;0.70;;
19778;SDS011;10049;59.306;18.090;2023-09-19T13:51:44;2.72;;;0.88;;
19778;SDS011;10049;59.306;18.090;2023-09-19T13:54:11;3.78;;;1.00;;
19778;SDS011;10049;59.306;18.090;2023-09-19T13:56:39;1.65;;;0.70;;
19778;SDS011;10049;59.306;18.090;2023-09-19T13:59:07;1.77;;;0.65;;
19778;SDS011;10049;59.306;18.090;2023-09-19T14:01:35;1.13;;;0.70;;
19778;SDS011;10049;59.306;18.090;2023-09-19T14:04:03;1.38;;;0.80;;
19778;SDS011;10049;59.306;18.090;2023-09-19T14:06:32;1.58;;;0.60;;
19778;SDS011;10049;59.306;18.090;2023-09-19T14:09:01;0.80;;;0.60;;
19778;SDS011;10049;59.306;18.090;2023-09-19T14:11:30;1.23;;;0.60;;
19778;SDS011;10049;59.306;18.090;2023-09-19T14:13:57;1.23;;;0.80;;
19778;SDS011;10049;59.306;18.090;2023-09-19T14:16:25;1.80;;;0.70;;
19778;SDS011;10049;59.306;18.090;2023-09-19T14:18:55;0.98;;;0.70;;
19778;SDS011;10049;59.306;18.090;2023-09-19T14:21:26;1.85;;;0.80;;
19778;SDS011;10049;59.306;18.090;2023-09-19T14:23:53;1.17;;;0.73;;
19778;SDS011;10049;59.306;18.090;2023-09-19T14:26:23;2.78;;;0.70;;
19778;SDS011;10049;59.306;18.090;2023-09-19T14:28:51;2.20;;;1.05;;
19778;SDS011;10049;59.306;18.090;2023-09-19T14:31:19;2.67;;;0.40;;
19778;SDS011;10049;59.306;18.090;2023-09-19T14:33:53;0.98;;;0.70;;
19778;SDS011;10049;59.306;18.090;2023-09-19T14:36:22;1.20;;;0.80;;
19778;SDS011;10049;59.306;18.090;2023-09-19T14:38:52;2.22;;;0.60;;
19778;SDS011;10049;59.306;18.090;2023-09-19T14:41:24;0.63;;;0.47;;
19778;SDS011;10049;59.306;18.090;2023-09-19T14:43:52;0.70;;;0.50;;
19778;SDS011;10049;59.306;18.090;2023-09-19T14:46:20;0.93;;;0.85;;
19778;SDS011;10049;59.306;18.090;2023-09-19T14:48:49;3.95;;;0.98;;
19778;SDS011;10049;59.306;18.090;2023-09-19T14:51:19;1.92;;;0.88;;
19778;SDS011;10049;59.306;18.090;2023-09-19T14:53:48;3.70;;;0.88;;
19778;SDS011;10049;59.306;18.090;2023-09-19T14:56:22;1.98;;;0.70;;
19778;SDS011;10049;59.306;18.090;2023-09-19T14:58:52;1.40;;;0.77;;
19778;SDS011;10049;59.306;18.090;2023-09-19T15:01:20;1.65;;;0.80;;
19778;SDS011;10049;59.306;18.090;2023-09-19T15:03:47;1.52;;;0.60;;
19778;SDS011;10049;59.306;18.090;2023-09-19T15:06:22;1.88;;;0.60;;
19778;SDS011;10049;59.306;18.090;2023-09-19T15:08:51;1.00;;;0.52;;
19778;SDS011;10049;59.306;18.090;2023-09-19T15:11:19;1.02;;;0.50;;
19778;SDS011;10049;59.306;18.090;2023-09-19T15:13:47;2.22;;;0.80;;
19778;SDS011;10049;59.306;18.090;2023-09-19T15:16:19;1.70;;;0.70;;
19778;SDS011;10049;59.306;18.090;2023-09-19T15:18:47;3.88;;;1.00;;
19778;SDS011;10049;59.306;18.090;2023-09-19T15:21:18;2.50;;;0.80;;
19778;SDS011;10049;59.306;18.090;2023-09-19T15:23:46;2.00;;;0.70;;
19778;SDS011;10049;59.306;18.090;2023-09-19T15:26:14;1.15;;;0.60;;
19778;SDS011;10049;59.306;18.090;2023-09-19T15:28:46;2.42;;;0.80;;